createdAt,value
2022-11-14T00:10:21.253Z,11.99
2022-11-14T00:22:21.297Z,11.97
2022-11-14T00:34:21.321Z,11.97
2022-11-14T00:46:21.285Z,11.95
2022-11-14T00:58:21.202Z,11.94
2022-11-14T01:10:21.339Z,11.93
2022-11-14T01:22:21.193Z,11.91
2022-11-14T01:34:21.196Z,11.90
2022-11-14T01:46:21.242Z,11.90
2022-11-14T01:58:21.286Z,11.88
2022-11-14T02:10:21.193Z,11.88
2022-11-14T02:22:21.303Z,11.87
2022-11-14T02:34:21.311Z,11.85
2022-11-14T02:46:21.301Z,11.85
2022-11-14T02:58:21.199Z,11.83
2022-11-14T03:10:21.241Z,11.82
2022-11-14T03:22:21.282Z,11.81
2022-11-14T03:34:21.243Z,11.80
2022-11-14T03:46:21.283Z,11.78
2022-11-14T03:58:21.288Z,11.78
2022-11-14T04:10:21.265Z,11.77
2022-11-14T04:22:21.312Z,11.75
2022-11-14T04:34:21.193Z,11.75
2022-11-14T04:46:21.257Z,11.74
2022-11-14T04:58:21.246Z,11.71
2022-11-14T05:10:21.304Z,11.71
2022-11-14T05:22:21.290Z,11.70
2022-11-14T05:34:21.267Z,11.69
2022-11-14T05:46:21.278Z,11.68
2022-11-14T05:58:21.194Z,11.67
2022-11-14T06:10:21.188Z,11.66
2022-11-14T06:22:21.195Z,11.65
2022-11-14T06:34:21.301Z,11.64
2022-11-14T06:46:21.292Z,11.61
2022-11-14T06:58:21.289Z,11.61
2022-11-14T07:10:21.266Z,11.61
2022-11-14T07:22:21.292Z,11.58
2022-11-14T07:34:21.318Z,11.59
2022-11-14T07:46:21.188Z,11.59
2022-11-14T07:58:21.266Z,11.56
2022-11-14T08:10:21.304Z,11.56
2022-11-14T08:22:21.305Z,11.56
2022-11-14T08:34:21.198Z,11.56
2022-11-14T08:46:21.190Z,11.56
2022-11-14T08:58:21.294Z,11.56
2022-11-14T09:10:21.318Z,11.56
2022-11-14T09:22:21.240Z,11.57
2022-11-14T09:34:21.273Z,11.57
2022-11-14T09:46:21.289Z,11.56
2022-11-14T09:58:21.191Z,11.54
2022-11-14T10:10:21.385Z,11.55
2022-11-14T10:22:21.254Z,11.52
2022-11-14T10:34:21.255Z,11.51
2022-11-14T10:46:21.298Z,11.51
2022-11-14T10:58:21.297Z,11.50
2022-11-14T11:10:21.239Z,11.75
2022-11-14T11:22:21.185Z,11.90
2022-11-14T11:34:21.285Z,11.75
2022-11-14T11:46:21.244Z,11.73
2022-11-14T11:58:21.203Z,11.77
2022-11-14T12:10:21.267Z,11.81
2022-11-14T12:22:21.195Z,11.80
2022-11-14T12:34:21.236Z,11.85
2022-11-14T12:46:21.289Z,11.82
2022-11-14T12:58:21.186Z,11.82
2022-11-14T13:10:21.293Z,11.80
2022-11-14T13:22:21.311Z,11.81
2022-11-14T13:34:21.304Z,11.79
2022-11-14T13:46:21.252Z,11.79
2022-11-14T13:58:21.189Z,11.77
2022-11-14T14:10:21.275Z,11.75
2022-11-14T14:22:21.212Z,11.73
2022-11-14T14:34:21.200Z,11.71
2022-11-14T14:46:21.690Z,11.71
2022-11-14T14:58:22.545Z,11.69
2022-11-14T15:10:21.294Z,11.67
2022-11-14T15:22:21.283Z,11.67
2022-11-14T15:34:21.251Z,11.66
2022-11-14T15:46:21.191Z,11.64
2022-11-14T15:58:28.218Z,11.64
2022-11-14T16:10:21.275Z,11.63
2022-11-14T16:22:21.306Z,11.60
2022-11-14T16:34:21.310Z,11.60
2022-11-14T16:46:21.320Z,11.59
2022-11-14T16:58:21.304Z,11.57
2022-11-14T17:10:21.189Z,11.56
2022-11-14T17:22:21.195Z,11.55
2022-11-14T17:34:21.295Z,11.55
2022-11-14T17:46:21.195Z,11.53
2022-11-14T17:58:21.264Z,11.52
2022-11-14T18:10:21.248Z,11.51
2022-11-14T18:22:21.200Z,11.48
2022-11-14T18:34:21.307Z,11.49
2022-11-14T18:46:21.270Z,11.46
2022-11-14T18:58:21.191Z,11.45
2022-11-14T19:10:21.197Z,11.45
2022-11-14T19:22:21.309Z,11.44
2022-11-14T19:34:21.244Z,11.43
2022-11-14T19:46:21.188Z,11.42
2022-11-14T19:58:21.194Z,11.41
2022-11-14T20:10:21.195Z,11.40
2022-11-14T20:22:21.189Z,11.39
2022-11-14T20:34:21.295Z,11.38
2022-11-14T20:46:21.222Z,11.36
2022-11-14T20:58:21.328Z,11.36
2022-11-14T21:10:21.191Z,11.35
2022-11-14T21:22:21.195Z,11.34
2022-11-14T21:34:21.197Z,11.32
2022-11-14T21:46:21.193Z,11.32
2022-11-14T21:58:21.211Z,11.31
2022-11-14T22:10:21.188Z,11.29
2022-11-14T22:22:21.194Z,11.28
2022-11-14T22:34:21.264Z,11.28
2022-11-14T22:46:21.189Z,11.27
2022-11-14T22:58:21.189Z,11.26
2022-11-14T23:10:21.217Z,11.25
2022-11-14T23:22:21.252Z,11.24
2022-11-14T23:34:21.279Z,11.23
2022-11-14T23:46:21.314Z,11.22
2022-11-14T23:58:21.204Z,11.20
